Time;durP1;ratioP1;P1;durP2;ratioP2;P2;SDS_P1;SDS_P2;PMS_P1;PMS_P2;Temp;Humidity;BMP_temperature;BMP_pressure;BME280_temperature;BME280_humidity;BME280_pressure;Samples;Min_cycle;Max_cycle;Signal;HPM_P1;HPM_P2
2022/08/05 00:02:21;;;;;;;11.82;5.30;;;;;;;18.83;89.47;101375.69;4894614;29;20604;-72
2022/08/05 00:04:48;;;;;;;8.88;4.30;;;;;;;18.82;89.35;101381.97;4895046;29;20065;-72
2022/08/05 00:07:23;;;;;;;7.47;4.93;;;;;;;18.80;89.12;101383.84;4893416;29;20056;-71
2022/08/05 00:10:10;;;;;;;8.45;5.38;;;;;;;18.82;89.00;101373.97;4894234;29;20055;-72
2022/08/05 00:12:37;;;;;;;8.95;5.13;;;;;;;18.84;89.18;101376.53;4895059;29;20049;-71
2022/08/05 00:15:23;;;;;;;7.75;5.03;;;;;;;18.85;89.23;101363.09;4894311;29;20053;-72
2022/08/05 00:18:11;;;;;;;9.13;4.90;;;;;;;18.88;88.95;101362.06;4889129;29;20056;-71
2022/08/05 00:20:49;;;;;;;6.88;4.75;;;;;;;18.89;88.76;101361.13;4890837;29;20077;-72
2022/08/05 00:23:17;;;;;;;8.98;5.50;;;;;;;18.87;89.04;101358.50;4885502;29;20050;-72
2022/08/05 00:26:05;;;;;;;11.13;5.90;;;;;;;18.87;89.10;101373.69;4893296;29;20416;-72
2022/08/05 00:28:34;;;;;;;13.95;6.40;;;;;;;18.89;89.11;101369.13;4885340;29;20099;-72
2022/08/05 00:31:03;;;;;;;7.47;5.72;;;;;;;18.90;89.26;101369.03;4886036;29;20060;-72
2022/08/05 00:33:34;;;;;;;10.02;5.68;;;;;;;18.88;89.29;101362.91;4895933;29;20044;-72
2022/08/05 00:36:23;;;;;;;10.15;5.30;;;;;;;18.86;89.25;101363.97;4891332;29;20046;-72
2022/08/05 00:39:11;;;;;;;11.32;5.50;;;;;;;18.81;89.08;101358.88;4893474;29;20049;-72
2022/08/05 00:41:46;;;;;;;9.43;5.30;;;;;;;18.79;88.96;101350.09;4896288;29;20133;-72
2022/08/05 00:44:23;;;;;;;7.75;5.38;;;;;;;18.78;89.03;101335.88;4896971;29;20983;-71
2022/08/05 00:46:58;;;;;;;8.15;5.60;;;;;;;18.77;88.96;101344.00;4888865;29;20052;-71
2022/08/05 00:49:32;;;;;;;8.55;5.00;;;;;;;18.73;88.69;101350.44;4894691;29;20129;-72
2022/08/05 00:52:19;;;;;;;10.00;5.18;;;;;;;18.75;88.63;101349.41;4894680;29;20053;-72
2022/08/05 00:54:54;;;;;;;8.18;5.30;;;;;;;18.69;88.56;101352.44;4896535;29;20120;-72
2022/08/05 00:57:23;;;;;;;5.93;5.03;;;;;;;18.69;88.65;101343.53;4894267;29;20109;-71
2022/08/05 00:59:57;;;;;;;9.90;4.97;;;;;;;18.69;87.91;101343.53;4896666;29;20048;-72
2022/08/05 01:02:25;;;;;;;12.82;5.18;;;;;;;18.65;87.72;101339.34;4888148;29;20045;-72
2022/08/05 01:04:52;;;;;;;8.48;5.32;;;;;;;18.57;88.05;101337.94;4892361;29;20911;-73
2022/08/05 01:07:19;;;;;;;10.63;5.25;;;;;;;18.53;88.83;101352.44;4891684;29;20049;-73
2022/08/05 01:09:46;;;;;;;6.13;4.90;;;;;;;18.56;88.43;101344.25;4891916;29;20048;-73
2022/08/05 01:12:24;;;;;;;8.38;4.95;;;;;;;18.53;88.16;101339.09;4895080;29;20097;-73
2022/08/05 01:15:03;;;;;;;;;;;;;;;18.47;88.66;101340.28;4885581;29;20102;-73
2022/08/05 01:17:42;;;;;;;8.55;4.63;;;;;;;18.51;87.97;101338.31;4884167;29;19931;-73
2022/08/05 01:20:35;;;;;;;12.10;5.10;;;;;;;18.44;88.13;101337.78;4892350;29;20041;-73
2022/08/05 01:23:23;;;;;;;6.93;4.80;;;;;;;18.44;87.79;101331.59;4883587;29;20042;-73
2022/08/05 01:26:43;;;;;;;7.05;5.53;;;;;;;18.41;87.85;101326.41;4893446;29;20064;-72
2022/08/05 01:29:33;;;;;;;10.80;5.18;;;;;;;18.34;88.59;101331.22;4888511;29;20144;-74
2022/08/05 01:32:08;;;;;;;9.55;5.00;;;;;;;18.33;88.80;101345.50;4891420;29;20113;-74
2022/08/05 01:34:58;;;;;;;9.02;5.80;;;;;;;18.30;89.05;101353.72;4882507;29;20037;-74
2022/08/05 01:37:42;;;;;;;8.98;5.00;;;;;;;18.27;89.10;101365.38;4894433;29;20498;-72
2022/08/05 01:40:14;;;;;;;11.50;6.35;;;;;;;18.26;89.61;101376.16;4895522;29;20132;-72
2022/08/05 01:42:47;;;;;;;10.43;6.50;;;;;;;18.28;89.83;101382.28;4895313;29;20041;-72
2022/08/05 01:45:16;;;;;;;10.18;6.30;;;;;;;18.31;90.33;101396.31;4887586;29;20078;-72
2022/08/05 01:47:50;;;;;;;11.52;6.28;;;;;;;18.36;89.98;101401.41;4892432;29;20045;-72
2022/08/05 01:50:27;;;;;;;9.88;5.47;;;;;;;18.39;89.75;101411.91;4894070;29;20105;-72
2022/08/05 01:53:00;;;;;;;;;;;;;;;18.40;89.12;101427.00;4894867;29;20049;-71
2022/08/05 01:55:32;;;;;;;14.27;5.63;;;;;;;18.40;89.15;101432.34;4892014;29;19928;-72
2022/08/05 01:58:06;;;;;;;12.57;6.28;;;;;;;18.41;89.30;101420.72;4891374;29;20073;-72
2022/08/05 02:00:58;;;;;;;7.65;5.38;;;;;;;18.43;89.53;101424.13;4885472;29;20079;-72
2022/08/05 02:03:35;;;;;;;10.40;5.60;;;;;;;18.42;89.01;101419.75;4885923;29;20577;-73
2022/08/05 02:06:06;;;;;;;9.93;6.18;;;;;;;18.37;88.79;101424.47;4882474;29;20049;-73
2022/08/05 02:08:54;;;;;;;10.23;6.38;;;;;;;18.33;89.58;101430.91;4890013;29;20041;-73
2022/08/05 02:12:05;;;;;;;11.45;6.30;;;;;;;18.35;90.05;101442.38;4894584;29;20110;-72
2022/08/05 02:14:46;;;;;;;10.57;6.47;;;;;;;18.37;89.65;101436.94;4875968;29;20065;-72
2022/08/05 02:17:37;;;;;;;11.50;5.72;;;;;;;18.37;89.58;101436.94;4894643;29;20045;-73
2022/08/05 02:20:35;;;;;;;9.10;5.13;;;;;;;18.34;88.66;101434.47;4882430;29;20045;-72
2022/08/05 02:23:10;;;;;;;9.50;5.28;;;;;;;18.27;88.76;101432.09;4893843;29;20052;-73
2022/08/05 02:25:42;;;;;;;;;;;;;;;18.15;88.04;101422.97;4893738;29;20140;-72
2022/08/05 02:28:25;;;;;;;9.05;6.20;;;;;;;17.93;88.37;101427.66;4889965;29;20446;-73
2022/08/05 02:31:04;;;;;;;9.07;5.60;;;;;;;17.79;89.49;101407.91;4894605;29;20119;-74
2022/08/05 02:33:48;;;;;;;10.43;6.18;;;;;;;17.72;90.38;101389.66;4893044;29;20045;-73
2022/08/05 02:36:26;;;;;;;11.25;6.45;;;;;;;17.62;90.81;101395.47;4883392;29;20041;-73
2022/08/05 02:39:01;;;;;;;12.93;6.70;;;;;;;17.61;91.53;101416.84;4887716;29;20120;-72
2022/08/05 02:41:32;;;;;;;11.50;6.28;;;;;;;17.62;90.93;101416.78;4887292;29;20037;-73
2022/08/05 02:44:12;;;;;;;12.20;6.57;;;;;;;17.55;90.74;101391.34;4894698;29;20041;-73
2022/08/05 02:46:44;;;;;;;8.70;5.85;;;;;;;17.51;90.94;101395.97;4892874;29;20060;-72
2022/08/05 02:49:33;;;;;;;9.27;6.03;;;;;;;17.42;91.16;101393.78;4883468;29;20053;-71
2022/08/05 02:52:14;;;;;;;10.73;6.38;;;;;;;17.37;90.95;101406.50;4892474;29;20041;-71
2022/08/05 02:55:00;;;;;;;10.60;5.85;;;;;;;17.31;90.96;101423.66;4888715;29;20440;-71
2022/08/05 02:57:38;;;;;;;9.90;5.50;;;;;;;17.27;91.54;101422.06;4893302;29;20052;-71
2022/08/05 03:00:27;;;;;;;9.98;5.80;;;;;;;17.21;90.47;101406.41;4896781;29;20045;-71
2022/08/05 03:02:57;;;;;;;11.38;5.90;;;;;;;17.14;91.05;101405.84;4896612;29;20127;-71
2022/08/05 03:05:25;;;;;;;7.85;4.85;;;;;;;17.13;90.29;101404.09;4896390;29;20076;-71
2022/08/05 03:08:18;;;;;;;14.05;5.10;;;;;;;17.08;90.19;101401.66;4894829;29;20037;-71
2022/08/05 03:10:56;;;;;;;10.75;5.15;;;;;;;17.07;90.11;101386.63;4894964;29;20056;-71
2022/08/05 03:13:44;;;;;;;10.27;4.68;;;;;;;17.06;89.36;101384.88;4894438;29;20048;-72
2022/08/05 03:16:28;;;;;;;;;;;;;;;17.12;88.54;101398.84;4896901;29;20048;-71
2022/08/05 03:18:59;;;;;;;11.10;5.13;;;;;;;17.12;89.14;101394.38;4893951;29;19931;-71
2022/08/05 03:21:30;;;;;;;8.90;5.13;;;;;;;17.18;88.67;101370.13;4888115;29;20042;-73
2022/08/05 03:24:08;;;;;;;7.38;4.82;;;;;;;17.22;87.98;101354.84;4888865;29;20052;-73
2022/08/05 03:26:39;;;;;;;10.60;4.60;;;;;;;17.20;88.49;101383.34;4885767;29;20051;-73
2022/08/05 03:29:06;;;;;;;10.13;5.00;;;;;;;17.20;88.61;101388.69;4895440;29;20528;-73
2022/08/05 03:31:40;;;;;;;10.73;4.70;;;;;;;17.24;87.74;101368.94;4894434;29;20049;-74
2022/08/05 03:34:27;;;;;;;7.65;4.57;;;;;;;17.25;86.55;101353.81;4892572;29;20045;-74
2022/08/05 03:36:55;;;;;;;10.63;4.68;;;;;;;17.19;87.57;101353.19;4896757;29;20049;-73
2022/08/05 03:39:22;;;;;;;7.38;4.60;;;;;;;17.15;87.55;101361.38;4893742;29;20141;-72
2022/08/05 03:41:55;;;;;;;8.10;4.22;;;;;;;17.14;87.46;101365.03;4893192;29;20056;-72
2022/08/05 03:44:23;;;;;;;8.05;4.35;;;;;;;17.11;88.15;101371.34;4895848;29;20053;-73
2022/08/05 03:46:55;;;;;;;9.45;4.78;;;;;;;17.11;88.45;101373.16;4895767;29;20147;-72
2022/08/05 03:49:22;;;;;;;8.10;4.68;;;;;;;17.11;89.07;101378.47;4888323;29;20053;-72
2022/08/05 03:52:04;;;;;;;7.70;4.60;;;;;;;17.14;88.89;101381.00;4890970;29;20037;-72
2022/08/05 03:55:00;;;;;;;11.18;4.63;;;;;;;17.17;88.10;101389.69;4887675;29;20051;-71
2022/08/05 03:57:52;;;;;;;11.77;5.10;;;;;;;17.17;88.90;101381.72;4892823;29;20049;-72
2022/08/05 04:00:25;;;;;;;8.70;5.13;;;;;;;17.19;89.55;101390.50;4896916;29;20049;-72
2022/08/05 04:02:57;;;;;;;7.93;4.80;;;;;;;17.15;89.65;101388.91;4893298;29;20643;-72
2022/08/05 04:05:31;;;;;;;11.25;5.32;;;;;;;17.17;90.01;101405.69;4888575;29;20273;-71
2022/08/05 04:08:08;;;;;;;11.10;5.63;;;;;;;17.21;90.64;101398.41;4895600;29;20060;-74
2022/08/05 04:10:57;;;;;;;10.55;5.68;;;;;;;17.15;90.39;101378.25;4892025;29;20041;-73
2022/08/05 04:13:27;;;;;;;17.60;6.78;;;;;;;17.05;90.73;101388.50;4892763;29;20593;-73
2022/08/05 04:16:20;;;;;;;10.90;6.40;;;;;;;17.01;91.34;101402.03;4895804;29;20052;-73
2022/08/05 04:18:52;;;;;;;13.48;7.47;;;;;;;17.01;91.74;101404.69;4890767;29;20094;-73
2022/08/05 04:21:23;;;;;;;15.80;7.72;;;;;;;16.98;92.19;101407.53;4893766;29;20040;-75
2022/08/05 04:24:11;;;;;;;12.43;6.70;;;;;;;16.99;92.75;101412.75;4887169;29;20045;-74
2022/08/05 04:26:49;;;;;;;14.32;7.53;;;;;;;16.95;92.38;101419.16;4885574;29;20045;-73
2022/08/05 04:29:17;;;;;;;14.52;6.80;;;;;;;16.92;92.46;101414.81;4886410;29;20076;-74
2022/08/05 04:31:45;;;;;;;12.57;6.20;;;;;;;16.88;92.76;101397.28;4892579;29;20049;-72
2022/08/05 04:34:14;;;;;;;13.82;7.50;;;;;;;16.82;93.00;101410.88;4893252;29;20052;-72
2022/08/05 04:37:01;;;;;;;13.38;7.93;;;;;;;16.77;93.29;101411.09;4893831;29;20048;-72
2022/08/05 04:39:30;;;;;;;17.00;8.25;;;;;;;16.75;93.64;101417.44;4893896;29;20124;-72
2022/08/05 04:41:58;;;;;;;16.83;8.65;;;;;;;16.78;94.06;101430.63;4881649;29;20049;-72
2022/08/05 04:44:25;;;;;;;16.30;9.25;;;;;;;16.85;94.44;101440.03;4896176;29;20048;-73
2022/08/05 04:46:58;;;;;;;13.50;9.57;;;;;;;16.91;94.71;101444.19;4895439;29;20095;-72
2022/08/05 04:49:26;;;;;;;14.27;8.30;;;;;;;16.95;94.70;101445.78;4891900;29;20513;-72
2022/08/05 04:52:14;;;;;;;17.48;8.80;;;;;;;16.91;94.25;101453.03;4899237;29;20049;-70
2022/08/05 04:54:41;;;;;;;13.52;7.50;;;;;;;16.88;93.92;101449.66;4893618;29;20068;-70
2022/08/05 04:57:08;;;;;;;12.82;7.68;;;;;;;16.77;93.75;101450.19;4892557;29;20053;-71
2022/08/05 04:59:35;;;;;;;15.52;8.70;;;;;;;16.75;94.02;101444.91;4887581;29;20053;-71
2022/08/05 05:02:07;;;;;;;15.95;8.57;;;;;;;16.72;93.87;101437.09;4877920;29;20046;-71
2022/08/05 05:04:55;;;;;;;14.45;8.25;;;;;;;16.66;93.89;101437.34;4877427;29;20065;-71
2022/08/05 05:07:29;;;;;;;;;;;;;;;16.61;94.54;101440.22;4891982;29;20051;-71
2022/08/05 05:10:03;;;;;;;11.20;6.13;;;;;;;16.57;94.02;101448.44;4893836;29;20409;-71
2022/08/05 05:12:31;;;;;;;12.48;5.93;;;;;;;16.48;94.05;101448.84;4890435;29;20047;-70
2022/08/05 05:14:59;;;;;;;10.38;4.97;;;;;;;16.37;93.26;101438.72;4905789;29;20040;-70
2022/08/05 05:17:44;;;;;;;9.40;4.60;;;;;;;16.25;92.82;101434.78;4891219;29;20058;-70
2022/08/05 05:20:23;;;;;;;6.80;3.47;;;;;;;16.14;91.66;101430.81;4897916;29;20105;-70
2022/08/05 05:22:59;;;;;;;7.40;3.88;;;;;;;16.03;91.80;101429.56;4895633;29;20080;-70
2022/08/05 05:25:45;;;;;;;6.32;4.30;;;;;;;15.94;92.83;101439.69;4893417;29;20045;-69
2022/08/05 05:28:13;;;;;;;9.82;4.45;;;;;;;15.90;93.56;101446.03;4891556;29;20059;-69
2022/08/05 05:30:41;;;;;;;6.25;3.30;;;;;;;15.92;93.43;101436.22;4894971;29;20041;-70
2022/08/05 05:33:17;;;;;;;7.03;3.75;;;;;;;15.87;91.64;101422.28;4894123;29;20057;-70
2022/08/05 05:35:49;;;;;;;6.35;3.50;;;;;;;15.82;91.55;101419.75;4894392;29;20067;-68
2022/08/05 05:38:17;;;;;;;6.95;3.70;;;;;;;15.77;91.59;101431.53;4894129;29;20041;-69
2022/08/05 05:40:55;;;;;;;6.95;3.40;;;;;;;15.74;92.72;101435.16;4894704;29;20122;-69
2022/08/05 05:43:24;;;;;;;5.68;3.17;;;;;;;15.83;93.21;101436.56;4893710;29;20120;-68
2022/08/05 05:46:11;;;;;;;8.05;3.88;;;;;;;15.89;93.14;101443.47;4891493;29;20056;-69
2022/08/05 05:48:46;;;;;;;9.98;3.88;;;;;;;15.92;93.57;101446.84;4890885;29;20529;-68
2022/08/05 05:51:22;;;;;;;9.45;4.18;;;;;;;16.03;94.06;101461.47;4892502;29;20048;-68
2022/08/05 05:53:51;;;;;;;9.82;4.30;;;;;;;16.14;93.93;101462.72;4887186;29;20049;-69
2022/08/05 05:56:28;;;;;;;12.30;4.40;;;;;;;16.24;93.78;101468.50;4889753;29;20048;-69
2022/08/05 05:59:05;;;;;;;7.55;3.70;;;;;;;16.33;93.77;101461.91;4892312;29;20049;-68
2022/08/05 06:01:37;;;;;;;9.70;3.65;;;;;;;16.39;92.42;101451.00;4892474;29;20194;-70
2022/08/05 06:04:11;;;;;;;8.32;3.58;;;;;;;16.39;92.11;101455.44;4892390;29;20053;-71
2022/08/05 06:06:43;;;;;;;7.57;3.70;;;;;;;16.45;91.50;101463.16;4891937;29;20105;-70
2022/08/05 06:09:16;;;;;;;8.80;3.58;;;;;;;16.43;91.41;101460.56;4895891;29;20477;-70
2022/08/05 06:12:03;;;;;;;7.13;3.50;;;;;;;16.50;91.51;101455.81;4892652;29;20049;-70
2022/08/05 06:14:30;;;;;;;9.57;3.65;;;;;;;16.55;91.40;101445.84;4895552;29;20569;-70
2022/08/05 06:17:01;;;;;;;7.80;3.92;;;;;;;16.60;91.21;101451.81;4895701;29;20748;-71
2022/08/05 06:19:48;;;;;;;10.35;4.35;;;;;;;16.67;92.15;101460.38;4905689;29;20509;-71
2022/08/05 06:22:31;;;;;;;8.10;4.18;;;;;;;16.73;92.42;101465.44;4895950;29;20042;-70
2022/08/05 06:25:02;;;;;;;9.18;4.40;;;;;;;16.73;92.44;101473.44;4895726;29;20045;-70
2022/08/05 06:27:50;;;;;;;7.50;4.03;;;;;;;16.76;91.67;101475.91;4895506;29;20124;-70
2022/08/05 06:30:38;;;;;;;9.70;4.40;;;;;;;16.74;91.28;101488.44;4909225;29;20044;-71
2022/08/05 06:33:05;;;;;;;10.40;4.70;;;;;;;16.72;91.65;101476.13;4897819;29;20521;-72
2022/08/05 06:35:37;;;;;;;7.50;4.57;;;;;;;16.76;92.53;101480.41;4892381;29;20521;-71
2022/08/05 06:38:24;;;;;;;10.90;4.82;;;;;;;16.87;92.62;101491.41;4898343;29;20504;-71
2022/08/05 06:41:04;;;;;;;9.65;4.90;;;;;;;16.95;92.63;101484.88;4896423;29;20041;-71
2022/08/05 06:43:36;;;;;;;12.52;5.50;;;;;;;17.02;92.09;101491.66;4897179;29;20129;-72
2022/08/05 06:46:24;;;;;;;9.27;4.82;;;;;;;17.05;92.13;101500.34;4898254;29;20049;-72
2022/08/05 06:48:57;;;;;;;9.43;5.30;;;;;;;17.10;92.38;101504.63;4896180;29;20060;-71
2022/08/05 06:51:28;;;;;;;14.23;5.80;;;;;;;17.18;92.59;101503.31;4896138;29;20048;-70
2022/08/05 06:54:00;;;;;;;8.75;5.60;;;;;;;17.26;92.58;101502.94;4897146;29;20102;-70
2022/08/05 06:56:30;;;;;;;9.15;5.47;;;;;;;17.30;92.41;101498.31;4895807;29;20053;-70
2022/08/05 06:59:05;;;;;;;8.80;5.18;;;;;;;17.38;92.25;101494.34;4893960;29;20061;-70
2022/08/05 07:01:36;;;;;;;8.38;5.40;;;;;;;17.45;92.05;101488.75;4897258;29;20095;-70
2022/08/05 07:04:08;;;;;;;12.48;6.50;;;;;;;17.52;91.68;101498.16;4895407;29;20105;-70
2022/08/05 07:06:36;;;;;;;13.02;5.95;;;;;;;17.59;91.40;101507.56;4897850;29;20041;-70
2022/08/05 07:09:03;;;;;;;8.82;5.95;;;;;;;17.60;91.56;101500.44;4895695;29;20045;-71
2022/08/05 07:11:35;;;;;;;13.30;6.70;;;;;;;17.65;91.81;101512.59;4895840;29;20049;-71
2022/08/05 07:17:00;;;;;;;7.45;4.68;;;;;;;17.77;91.32;101510.25;4897240;29;20048;-70
2022/08/05 07:19:51;;;;;;;11.15;5.90;;;;;;;17.95;90.93;101517.34;4895609;29;20567;-70
2022/08/05 07:22:38;;;;;;;11.93;6.97;;;;;;;18.12;90.49;101521.81;4896755;29;20051;-70
2022/08/05 07:25:08;;;;;;;14.63;6.25;;;;;;;18.25;90.40;101526.53;4897178;29;20069;-70
2022/08/05 07:27:57;;;;;;;10.10;6.32;;;;;;;18.34;89.90;101519.88;4895740;29;20045;-70
2022/08/05 07:30:34;;;;;;;8.80;5.38;;;;;;;18.51;89.04;101522.50;4892805;29;20057;-70
2022/08/05 07:33:10;;;;;;;13.70;6.97;;;;;;;18.68;89.59;101531.41;4895494;29;20584;-71
2022/08/05 07:35:44;;;;;;;14.63;7.47;;;;;;;18.79;89.95;101529.03;4896114;29;20049;-71
2022/08/05 07:38:34;;;;;;;10.82;6.57;;;;;;;18.87;90.38;101539.31;4895986;29;20045;-71
2022/08/05 07:41:16;;;;;;;10.55;6.22;;;;;;;18.93;89.24;101547.88;4901607;29;20073;-71
2022/08/05 07:44:07;;;;;;;12.55;8.32;;;;;;;18.95;89.76;101547.78;4894736;29;20492;-71
2022/08/05 07:46:47;;;;;;;13.48;8.27;;;;;;;19.04;89.78;101544.59;4894821;29;20528;-71
2022/08/05 07:49:17;;;;;;;11.82;7.70;;;;;;;19.13;89.50;101545.91;4894681;29;20056;-71
2022/08/05 07:51:44;;;;;;;10.77;6.38;;;;;;;19.22;89.20;101544.56;4896564;29;20878;-72
2022/08/05 07:54:25;;;;;;;11.80;7.63;;;;;;;19.28;88.25;101544.19;4900033;29;20045;-72
2022/08/05 07:57:01;;;;;;;17.55;7.97;;;;;;;19.34;88.37;101543.00;4896556;29;20097;-71
2022/08/05 07:59:49;;;;;;;19.17;8.23;;;;;;;19.37;88.27;101541.00;4886796;29;20042;-71
2022/08/05 08:02:26;;;;;;;14.30;7.72;;;;;;;19.40;87.75;101546.19;4888397;29;20140;-71
2022/08/05 08:05:14;;;;;;;11.85;7.20;;;;;;;19.43;88.18;101546.97;4894473;29;20065;-71
2022/08/05 08:07:43;;;;;;;12.27;6.68;;;;;;;19.49;86.63;101552.81;4891637;29;20080;-71
2022/08/05 08:10:25;;;;;;;11.85;7.30;;;;;;;19.48;87.35;101560.94;4897647;29;20520;-71
2022/08/05 08:12:52;;;;;;;11.20;7.30;;;;;;;19.54;87.58;101556.09;4894342;29;20125;-71
2022/08/05 08:15:24;;;;;;;11.05;5.85;;;;;;;19.63;87.52;101564.53;4896812;29;20140;-70
2022/08/05 08:18:11;;;;;;;11.55;6.30;;;;;;;19.66;87.02;101564.38;4896695;29;20056;-72
2022/08/05 08:20:41;;;;;;;10.80;6.40;;;;;;;19.74;87.19;101567.47;4898109;29;20048;-70
2022/08/05 08:23:28;;;;;;;9.05;6.03;;;;;;;19.79;86.90;101569.88;4906035;29;20484;-71
2022/08/05 08:26:16;;;;;;;13.00;6.78;;;;;;;20.00;85.81;101568.66;4894147;29;20042;-70
2022/08/05 08:28:56;;;;;;;10.45;5.10;;;;;;;20.12;85.19;101568.91;4893000;29;20053;-71
2022/08/05 08:31:43;;;;;;;12.27;4.57;;;;;;;20.22;82.68;101578.09;4905252;29;20047;-72
2022/08/05 08:34:11;;;;;;;10.75;5.55;;;;;;;20.36;83.60;101582.63;4901473;29;20117;-72
2022/08/05 08:36:39;;;;;;;8.23;4.80;;;;;;;20.50;83.58;101581.78;4896040;29;20056;-72
2022/08/05 08:39:22;;;;;;;9.98;4.35;;;;;;;20.61;83.14;101579.31;4897351;29;20049;-72
2022/08/05 08:41:51;;;;;;;8.20;4.10;;;;;;;20.74;82.50;101586.63;4899245;29;20113;-72
2022/08/05 08:44:31;;;;;;;11.38;4.70;;;;;;;20.78;81.92;101594.38;4897898;29;20045;-72
2022/08/05 08:47:26;;;;;;;8.77;4.40;;;;;;;21.11;82.36;101600.41;4896556;29;20128;-72
2022/08/05 08:50:17;;;;;;;17.92;4.10;;;;;;;21.35;81.46;101599.81;4896247;29;20060;-72
2022/08/05 08:53:07;;;;;;;10.40;3.42;;;;;;;21.47;79.19;101606.22;4895689;29;20045;-72
2022/08/05 08:55:39;;;;;;;8.77;2.80;;;;;;;21.42;78.09;101614.56;4879919;29;20057;-72
2022/08/05 08:58:32;;;;;;;8.00;2.35;;;;;;;21.32;76.82;101608.91;4896893;29;20049;-72
2022/08/05 09:01:15;;;;;;;5.72;2.35;;;;;;;21.19;77.02;101611.50;4901896;29;20167;-72
2022/08/05 09:03:50;;;;;;;7.78;2.45;;;;;;;21.15;77.45;101615.34;4902846;29;20139;-72
2022/08/05 09:06:29;;;;;;;6.28;2.28;;;;;;;21.18;77.29;101622.34;4885721;29;20058;-72
2022/08/05 09:08:59;;;;;;;4.40;2.03;;;;;;;21.17;77.27;101632.19;4895619;29;20105;-72
2022/08/05 09:11:28;;;;;;;5.35;2.10;;;;;;;21.23;77.26;101634.50;4895020;29;20200;-72
2022/08/05 09:14:16;;;;;;;7.72;2.13;;;;;;;21.26;75.86;101636.13;4893145;29;20052;-73
2022/08/05 09:17:08;;;;;;;5.38;1.95;;;;;;;21.24;70.55;101625.50;4889338;29;20049;-73
2022/08/05 09:19:57;;;;;;;8.75;2.03;;;;;;;21.26;73.59;101628.06;4895268;29;20500;-73
2022/08/05 09:23:13;;;;;;;6.32;1.95;;;;;;;21.45;69.79;101627.78;4895304;29;20048;-72
2022/08/05 09:25:49;;;;;;;;;;;;;;;21.55;71.42;101636.06;4894721;29;20041;-72
2022/08/05 09:28:27;;;;;;;3.25;1.38;;;;;;;21.65;71.68;101639.91;4894179;29;20034;-72
2022/08/05 09:31:09;;;;;;;7.63;1.48;;;;;;;21.84;71.03;101644.97;4894202;29;20536;-71
2022/08/05 09:34:06;;;;;;;4.03;1.10;;;;;;;22.05;68.25;101651.69;4897204;29;20045;-73
2022/08/05 09:36:48;;;;;;;4.15;1.33;;;;;;;22.24;65.88;101648.63;4896866;29;20045;-72
2022/08/05 09:39:28;;;;;;;4.70;1.30;;;;;;;22.25;66.61;101653.91;4891388;29;20037;-72
2022/08/05 09:42:16;;;;;;;1.77;0.98;;;;;;;22.59;60.92;101650.78;4895570;29;20045;-74
2022/08/05 09:44:54;;;;;;;4.18;1.30;;;;;;;22.75;59.28;101654.16;4894956;29;20049;-74
2022/08/05 09:47:26;;;;;;;7.30;1.30;;;;;;;22.76;62.67;101658.56;4892049;29;20048;-71
2022/08/05 09:50:17;;;;;;;3.08;1.33;;;;;;;22.89;64.36;101661.25;4892729;29;20049;-73
2022/08/05 09:53:04;;;;;;;3.05;1.00;;;;;;;22.95;64.70;101658.09;4898651;29;20702;-72
2022/08/05 09:55:35;;;;;;;21.67;2.38;;;;;;;22.87;62.86;101657.78;4899552;29;20053;-72
2022/08/05 09:58:25;;;;;;;3.30;0.90;;;;;;;22.69;63.22;101653.69;4897371;29;20056;-72
2022/08/05 10:01:01;;;;;;;3.35;1.10;;;;;;;22.33;63.97;101666.81;4897617;29;20041;-71
2022/08/05 10:04:03;;;;;;;2.53;0.95;;;;;;;22.02;61.43;101671.53;4893826;29;20041;-72
2022/08/05 10:06:58;;;;;;;5.22;1.50;;;;;;;21.68;62.55;101679.09;4895223;29;20085;-72
2022/08/05 10:09:34;;;;;;;6.95;1.30;;;;;;;21.40;64.86;101681.72;4897653;29;20049;-72
2022/08/05 10:12:11;;;;;;;3.97;1.15;;;;;;;21.32;65.69;101678.63;4897719;29;20114;-74
2022/08/05 10:15:25;;;;;;;3.90;1.40;;;;;;;21.26;67.17;101677.19;4897063;29;20201;-75
2022/08/05 10:18:08;;;;;;;2.95;1.20;;;;;;;21.30;67.74;101682.38;4897076;29;20044;-73
2022/08/05 10:20:48;;;;;;;15.15;2.05;;;;;;;21.34;68.03;101683.91;4892388;29;20536;-74
2022/08/05 10:23:29;;;;;;;8.02;1.77;;;;;;;21.41;66.53;101693.28;4901405;29;20041;-75
2022/08/05 10:26:17;;;;;;;4.28;1.40;;;;;;;21.43;64.95;101699.41;4912391;29;20052;-74
2022/08/05 10:28:50;;;;;;;10.63;1.97;;;;;;;21.42;66.51;101700.38;4906101;29;20132;-75
2022/08/05 10:31:23;;;;;;;5.65;1.50;;;;;;;21.43;64.80;101696.72;4903332;29;20270;-77
2022/08/05 10:34:10;;;;;;;6.60;1.50;;;;;;;21.46;65.98;101704.59;4904141;29;20052;-75
2022/08/05 10:36:40;;;;;;;1.50;0.90;;;;;;;21.61;63.02;101701.91;4897306;29;20043;-75
2022/08/05 10:39:17;;;;;;;21.27;1.90;;;;;;;21.77;63.59;101713.41;4886130;29;20126;-75
2022/08/05 10:42:23;;;;;;;8.20;1.30;;;;;;;22.11;62.76;101699.63;4894683;29;20049;-76
2022/08/05 10:45:04;;;;;;;3.60;1.00;;;;;;;22.53;60.31;101699.56;4894829;29;20045;-75
2022/08/05 10:47:52;;;;;;;2.92;1.23;;;;;;;22.74;60.36;101697.25;4890068;29;20053;-76
2022/08/05 10:51:13;;;;;;;3.78;1.00;;;;;;;22.95;56.26;101694.91;4893959;29;20047;-75
2022/08/05 10:53:49;;;;;;;2.50;0.90;;;;;;;23.33;55.68;101704.81;4895012;29;20148;-77
2022/08/05 10:56:22;;;;;;;2.97;0.75;;;;;;;23.68;55.50;101696.06;4892981;29;20043;-75
2022/08/05 10:58:52;;;;;;;2.15;0.80;;;;;;;23.77;55.55;101691.81;4896535;29;20076;-78
2022/08/05 11:01:36;;;;;;;13.02;1.35;;;;;;;24.00;56.16;101698.25;4895851;29;20114;-78
2022/08/05 11:04:26;;;;;;;5.10;1.00;;;;;;;24.22;54.01;101693.94;4896135;29;20509;-76
2022/08/05 11:06:59;;;;;;;2.53;0.50;;;;;;;24.62;49.90;101700.84;4897735;29;20048;-78
2022/08/05 11:09:49;;;;;;;2.88;0.80;;;;;;;24.74;49.65;101702.63;4897396;29;20076;-78
2022/08/05 11:12:33;;;;;;;3.03;0.60;;;;;;;24.52;46.91;101703.34;4896450;29;20135;-77
2022/08/05 11:15:42;;;;;;;2.33;0.40;;;;;;;24.35;42.95;101704.66;4896667;29;20045;-76
2022/08/05 11:18:32;;;;;;;1.85;0.40;;;;;;;24.29;43.72;101705.97;4895494;29;20052;-76
2022/08/05 11:21:01;;;;;;;3.13;0.50;;;;;;;24.29;45.02;101697.91;4898538;29;20480;-77
2022/08/05 11:23:40;;;;;;;5.88;0.75;;;;;;;24.45;45.33;101699.41;4896282;29;20056;-75
2022/08/05 11:26:27;;;;;;;6.32;0.73;;;;;;;24.62;44.01;101692.75;4894327;29;20124;-79
2022/08/05 11:29:04;;;;;;;2.05;0.50;;;;;;;24.76;41.90;101706.06;4896998;29;20048;-76
2022/08/05 11:31:42;;;;;;;2.65;0.60;;;;;;;24.99;43.51;101699.84;4895897;29;20118;-78
2022/08/05 11:34:37;;;;;;;1.42;0.40;;;;;;;24.94;41.70;101709.16;4895364;29;20120;-77
2022/08/05 11:37:05;;;;;;;1.75;0.55;;;;;;;25.05;41.43;101713.72;4895381;29;20052;-76
2022/08/05 11:39:53;;;;;;;2.97;0.60;;;;;;;25.17;41.34;101708.34;4893011;29;20052;-77
2022/08/05 11:42:35;;;;;;;1.85;0.30;;;;;;;25.33;39.82;101710.69;4895170;29;20595;-78
2022/08/05 11:45:07;;;;;;;2.47;0.60;;;;;;;25.41;40.73;101717.19;4896542;29;20069;-76
2022/08/05 11:47:49;;;;;;;1.48;0.50;;;;;;;25.52;38.17;101716.34;4896555;29;20497;-74
2022/08/05 11:50:21;;;;;;;1.58;0.40;;;;;;;25.39;37.41;101723.69;4896351;29;20045;-74
2022/08/05 11:52:49;;;;;;;2.17;0.80;;;;;;;25.33;38.52;101721.47;4898564;29;20064;-76
2022/08/05 11:55:23;;;;;;;1.23;0.38;;;;;;;25.36;37.99;101742.78;4896483;29;20049;-77
2022/08/05 11:58:02;;;;;;;5.97;0.40;;;;;;;25.45;38.54;101742.09;4894233;29;20056;-75
2022/08/05 12:00:39;;;;;;;4.20;0.50;;;;;;;25.30;37.28;101733.34;4894940;29;20068;-76
2022/08/05 12:03:16;;;;;;;2.40;0.60;;;;;;;25.36;38.13;101740.09;4895683;29;20109;-75
2022/08/05 12:06:03;;;;;;;4.05;0.60;;;;;;;25.42;37.78;101740.50;4893746;29;20144;-76
2022/08/05 12:08:57;;;;;;;1.23;0.38;;;;;;;25.46;36.69;101751.06;4895476;29;20126;-75
2022/08/05 12:11:28;;;;;;;5.03;0.40;;;;;;;25.54;37.81;101754.00;4895894;29;20067;-74
2022/08/05 12:14:08;;;;;;;1.75;0.47;;;;;;;25.64;36.08;101746.88;4897546;29;20041;-75
2022/08/05 12:16:40;;;;;;;3.50;0.50;;;;;;;25.74;35.52;101747.88;4897322;29;20079;-74
2022/08/05 12:19:14;;;;;;;4.10;0.40;;;;;;;25.65;34.73;101759.41;4897291;29;20398;-75
2022/08/05 12:22:05;;;;;;;5.03;0.50;;;;;;;25.40;34.28;101760.50;4897580;29;20156;-73